createdAt,value
2018-05-13T00:02:26.184Z,99676.22
2018-05-13T00:04:54.680Z,99675.17
2018-05-13T00:07:23.160Z,99681.01
2018-05-13T00:09:51.648Z,99677.31
2018-05-13T00:12:20.177Z,99651.21
2018-05-13T00:14:48.637Z,99678.41
2018-05-13T00:17:17.128Z,99683.06
2018-05-13T00:19:45.637Z,99686.34
2018-05-13T00:22:14.149Z,99683.74
2018-05-13T00:24:42.618Z,99678.98
2018-05-13T00:27:11.129Z,99671.59
2018-05-13T00:29:39.590Z,99675.54
2018-05-13T00:32:08.081Z,99669.67
2018-05-13T00:34:36.584Z,99669.13
2018-05-13T00:37:05.032Z,99673.63
2018-05-13T00:39:33.540Z,99672.69
2018-05-13T00:42:02.050Z,99670.08
2018-05-13T00:44:30.508Z,99672.41
2018-05-13T00:46:58.996Z,99670.62
2018-05-13T00:49:27.472Z,99665.02
2018-05-13T00:51:55.963Z,99663.23
2018-05-13T00:54:36.197Z,99669.39
2018-05-13T00:57:04.672Z,99674.05
2018-05-13T00:59:33.178Z,99665.30
2018-05-13T01:02:01.649Z,99666.13
2018-05-13T01:04:30.168Z,99652.58
2018-05-13T01:06:58.631Z,99665.86
2018-05-13T01:09:27.177Z,99664.77
2018-05-13T01:11:55.628Z,99664.48
2018-05-13T01:14:24.113Z,99668.85
2018-05-13T01:16:52.590Z,99666.13
2018-05-13T01:19:21.102Z,99669.00
2018-05-13T01:21:49.588Z,99669.95
2018-05-13T01:24:18.048Z,99674.59
2018-05-13T01:26:46.606Z,99673.09
2018-05-13T01:29:15.073Z,99669.70
2018-05-13T01:31:43.599Z,99671.58
2018-05-13T01:34:12.080Z,99665.16
2018-05-13T01:36:40.532Z,99670.35
2018-05-13T01:39:09.024Z,99669.24
2018-05-13T01:41:37.473Z,99675.56
2018-05-13T01:44:05.977Z,99674.72
2018-05-13T01:46:34.445Z,99676.65
2018-05-13T01:49:02.953Z,99669.67
2018-05-13T01:51:31.411Z,99665.42
2018-05-13T01:53:59.900Z,99667.36
2018-05-13T01:56:28.388Z,99671.31
2018-05-13T01:58:56.888Z,99670.09
2018-05-13T02:01:25.361Z,99670.63
2018-05-13T02:03:53.864Z,99667.06
2018-05-13T02:06:22.343Z,99669.67
2018-05-13T02:08:50.869Z,99668.28
2018-05-13T02:11:19.345Z,99678.67
2018-05-13T02:13:47.836Z,99670.22
2018-05-13T02:16:16.332Z,99672.79
2018-05-13T02:18:44.832Z,99668.41
2018-05-13T02:21:13.385Z,99672.06
2018-05-13T02:23:41.836Z,99668.06
2018-05-13T02:26:10.342Z,99667.03
2018-05-13T02:28:38.820Z,99648.99
2018-05-13T02:31:07.312Z,99671.48
2018-05-13T02:33:35.805Z,99672.95
2018-05-13T02:36:04.291Z,99671.18
2018-05-13T02:38:32.802Z,99668.55
2018-05-13T02:41:01.334Z,99668.09
2018-05-13T02:43:29.841Z,99670.83
2018-05-13T02:45:58.328Z,99672.75
2018-05-13T02:48:26.825Z,99680.80
2018-05-13T02:50:55.317Z,99677.89
2018-05-13T02:53:23.776Z,99680.11
2018-05-13T02:55:52.319Z,99678.64
2018-05-13T02:58:20.777Z,99676.78
2018-05-13T03:00:49.260Z,99673.09
2018-05-13T03:03:17.696Z,99669.64
2018-05-13T03:05:46.189Z,99671.89
2018-05-13T03:08:14.656Z,99672.03
2018-05-13T03:10:43.181Z,99672.61
2018-05-13T03:13:11.688Z,99673.88
2018-05-13T03:15:40.258Z,99672.52
2018-05-13T03:18:08.712Z,99680.72
2018-05-13T03:20:37.240Z,99681.84
2018-05-13T03:23:05.704Z,99678.78
2018-05-13T03:25:34.188Z,99665.40
2018-05-13T03:28:02.690Z,99677.42
2018-05-13T03:30:31.184Z,99676.72
2018-05-13T03:32:59.646Z,99678.23
2018-05-13T03:35:28.149Z,99684.09
2018-05-13T03:37:56.655Z,99688.79
2018-05-13T03:40:25.101Z,99677.98
2018-05-13T03:42:53.618Z,99679.67
2018-05-13T03:45:22.057Z,99684.47
2018-05-13T03:47:50.561Z,99682.99
2018-05-13T03:50:19.047Z,99681.22
2018-05-13T03:52:47.533Z,99683.67
2018-05-13T03:55:15.997Z,99681.09
2018-05-13T03:57:44.520Z,99674.17
2018-05-13T04:00:12.988Z,99685.58
2018-05-13T04:02:41.448Z,99683.00
2018-05-13T04:05:09.953Z,99680.20
2018-05-13T04:11:08.009Z,99690.30
2018-05-13T04:13:48.164Z,99678.43
2018-05-13T04:16:16.632Z,99675.84
2018-05-13T04:18:45.215Z,99676.10
2018-05-13T04:21:13.789Z,99680.68
2018-05-13T04:23:42.286Z,99674.96
2018-05-13T04:26:10.759Z,99678.24
2018-05-13T04:28:39.242Z,99677.47
2018-05-13T04:31:07.741Z,99662.59
2018-05-13T04:33:36.248Z,99662.92
2018-05-13T04:36:04.732Z,99659.64
2018-05-13T04:38:33.189Z,99661.84
2018-05-13T04:41:01.706Z,99654.73
2018-05-13T04:43:30.208Z,99675.33
2018-05-13T04:45:58.708Z,99670.82
2018-05-13T04:48:27.182Z,99668.23
2018-05-13T04:50:55.701Z,99672.07
2018-05-13T04:53:24.162Z,99665.09
2018-05-13T04:55:52.688Z,99667.39
2018-05-13T04:58:21.152Z,99668.94
2018-05-13T05:00:49.657Z,99659.46
2018-05-13T05:03:18.146Z,99657.72
2018-05-13T05:05:46.679Z,99655.39
2018-05-13T05:08:15.188Z,99657.75
2018-05-13T05:10:43.665Z,99659.66
2018-05-13T05:13:12.228Z,99660.35
2018-05-13T05:15:40.736Z,99656.82
2018-05-13T05:18:09.203Z,99657.11
2018-05-13T05:20:37.728Z,99657.36
2018-05-13T05:23:06.196Z,99669.11
2018-05-13T05:25:34.655Z,99666.37
2018-05-13T05:28:03.108Z,99669.41
2018-05-13T05:30:31.612Z,99662.97
2018-05-13T05:33:00.085Z,99668.01
2018-05-13T05:35:28.600Z,99667.20
2018-05-13T05:37:57.149Z,99667.30
2018-05-13T05:40:25.679Z,99673.36
2018-05-13T05:42:54.192Z,99673.16
2018-05-13T05:45:22.689Z,99674.41
2018-05-13T05:47:51.157Z,99675.05
2018-05-13T05:50:19.648Z,99673.12
2018-05-13T05:52:48.124Z,99673.75
2018-05-13T05:55:16.624Z,99673.07
2018-05-13T05:57:45.153Z,99668.29
2018-05-13T06:00:13.633Z,99653.08
2018-05-13T06:02:42.084Z,99669.27
2018-05-13T06:05:10.581Z,99669.96
2018-05-13T06:07:39.050Z,99675.97
2018-05-13T06:10:07.544Z,99665.63
2018-05-13T06:12:36.017Z,99651.38
2018-05-13T06:15:04.486Z,99659.82
2018-05-13T06:17:33.029Z,99649.16
2018-05-13T06:20:01.549Z,99660.12
2018-05-13T06:22:30.056Z,99664.08
2018-05-13T06:24:58.508Z,99658.87
2018-05-13T06:27:26.994Z,99649.82
2018-05-13T06:29:55.507Z,99650.23
2018-05-13T06:32:23.998Z,99652.15
2018-05-13T06:34:52.473Z,99634.11
2018-05-13T06:37:21.068Z,99653.67
2018-05-13T06:39:49.465Z,99645.62
2018-05-13T06:42:17.960Z,99650.39
2018-05-13T06:44:46.418Z,99644.91
2018-05-13T06:47:14.925Z,99647.77
2018-05-13T06:49:43.376Z,99646.12
2018-05-13T06:52:11.894Z,99640.17
2018-05-13T06:54:40.445Z,99636.11
2018-05-13T06:57:08.896Z,99638.11
2018-05-13T06:59:37.348Z,99637.09
2018-05-13T07:02:05.830Z,99631.40
2018-05-13T07:04:34.300Z,99630.44
2018-05-13T07:07:02.804Z,99629.96
2018-05-13T07:09:31.339Z,99626.45
2018-05-13T07:11:59.802Z,99620.34
2018-05-13T07:14:28.293Z,99626.91
2018-05-13T07:16:56.777Z,99624.03
2018-05-13T07:19:25.228Z,99621.06
2018-05-13T07:21:53.680Z,99620.99
2018-05-13T07:24:22.162Z,99619.16
2018-05-13T07:26:50.637Z,99613.61
2018-05-13T07:29:19.145Z,99610.69
2018-05-13T07:31:47.604Z,99611.84
2018-05-13T07:34:16.116Z,99617.14
2018-05-13T07:36:44.575Z,99604.81
2018-05-13T07:39:13.101Z,99605.66
2018-05-13T07:41:41.549Z,99599.09
2018-05-13T07:44:09.997Z,99597.77
2018-05-13T07:46:38.497Z,99599.98
2018-05-13T07:49:06.948Z,99597.28
2018-05-13T07:51:35.444Z,99595.77
2018-05-13T07:54:03.888Z,99592.36
2018-05-13T07:56:32.394Z,99591.80
2018-05-13T07:59:00.912Z,99589.91
2018-05-13T08:01:29.371Z,99583.80
2018-05-13T08:03:57.825Z,99593.72
2018-05-13T08:06:26.319Z,99586.37
2018-05-13T08:08:54.796Z,99588.76
2018-05-13T08:11:23.290Z,99579.98
2018-05-13T08:13:51.792Z,99580.31
2018-05-13T08:16:20.312Z,99575.48
2018-05-13T08:18:48.808Z,99578.02
2018-05-13T08:21:17.284Z,99576.33
2018-05-13T08:23:45.784Z,99576.93
2018-05-13T08:26:14.239Z,99574.63
2018-05-13T08:28:42.719Z,99569.97
2018-05-13T08:31:11.241Z,99567.39
2018-05-13T08:33:39.696Z,99570.81
2018-05-13T08:36:08.204Z,99571.55
2018-05-13T08:38:36.677Z,99566.96
2018-05-13T08:41:05.213Z,99562.75
2018-05-13T08:43:33.680Z,99547.69
2018-05-13T08:46:02.186Z,99560.75
2018-05-13T08:48:30.663Z,99554.56
2018-05-13T08:50:59.161Z,99551.56
2018-05-13T08:53:27.712Z,99539.86
2018-05-13T08:55:56.221Z,99524.66
2018-05-13T08:58:24.696Z,99532.25
2018-05-13T09:00:53.204Z,99531.48
2018-05-13T09:03:21.665Z,99525.14
2018-05-13T09:05:50.165Z,99525.72
2018-05-13T09:08:18.709Z,99518.31
2018-05-13T09:10:47.185Z,99518.90
2018-05-13T09:13:15.681Z,99514.37
2018-05-13T09:15:44.159Z,99511.33
2018-05-13T09:18:12.626Z,99512.13
2018-05-13T09:20:41.241Z,99513.20
2018-05-13T09:23:09.636Z,99501.45
2018-05-13T09:25:38.099Z,99503.23
2018-05-13T09:28:06.604Z,99498.72
2018-05-13T09:30:35.118Z,99495.69
2018-05-13T09:33:03.660Z,99490.42
2018-05-13T09:35:32.149Z,99491.91
2018-05-13T09:38:00.661Z,99483.19
2018-05-13T09:40:29.174Z,99488.68
2018-05-13T09:42:57.632Z,99485.31
2018-05-13T09:45:26.128Z,99484.09
2018-05-13T09:47:54.621Z,99481.19
2018-05-13T09:50:23.151Z,99470.92
2018-05-13T09:52:51.668Z,99475.15
2018-05-13T09:55:20.177Z,99483.88
2018-05-13T09:57:48.692Z,99473.19
2018-05-13T10:00:17.192Z,99476.03
2018-05-13T10:02:45.716Z,99476.55
2018-05-13T10:05:14.213Z,99473.75
2018-05-13T10:07:42.687Z,99472.78
2018-05-13T10:10:11.200Z,99469.98
2018-05-13T10:12:39.696Z,99464.27
2018-05-13T10:15:08.206Z,99461.64
2018-05-13T10:17:36.670Z,99458.73
2018-05-13T10:20:05.203Z,99444.77
2018-05-13T10:22:33.724Z,99446.03
2018-05-13T10:25:02.245Z,99441.64
2018-05-13T10:27:30.702Z,99437.39
2018-05-13T10:29:59.164Z,99444.16
2018-05-13T10:32:27.629Z,99438.55
2018-05-13T10:34:56.105Z,99435.30
2018-05-13T10:37:24.608Z,99431.09
2018-05-13T10:39:53.064Z,99428.80
2018-05-13T10:42:21.593Z,99430.14
2018-05-13T10:44:50.099Z,99421.45
2018-05-13T10:47:18.619Z,99400.38
2018-05-13T10:49:47.076Z,99398.34
2018-05-13T10:52:15.582Z,99414.56
2018-05-13T10:54:44.081Z,99416.05
2018-05-13T10:57:12.596Z,99412.91
2018-05-13T10:59:41.065Z,99406.17
2018-05-13T11:02:09.557Z,99396.80
2018-05-13T11:04:38.107Z,99404.02
2018-05-13T11:07:06.637Z,99394.11
2018-05-13T11:09:35.105Z,99394.88
2018-05-13T11:12:03.600Z,99387.13
2018-05-13T11:14:32.090Z,99383.12
2018-05-13T11:17:00.584Z,99370.83
2018-05-13T11:19:29.050Z,99369.66
2018-05-13T11:21:57.508Z,99364.49
2018-05-13T11:24:26.011Z,99361.11
2018-05-13T11:26:54.478Z,99359.73
2018-05-13T11:29:22.993Z,99361.09
2018-05-13T11:31:51.461Z,99363.34
2018-05-13T11:34:19.924Z,99359.98
2018-05-13T11:36:48.420Z,99358.63
2018-05-13T11:39:16.876Z,99350.73
2018-05-13T11:41:45.376Z,99348.99
2018-05-13T11:44:13.836Z,99342.77
2018-05-13T11:46:42.402Z,99341.70
2018-05-13T11:49:10.950Z,99335.25
2018-05-13T11:51:39.385Z,99329.27
2018-05-13T11:54:07.883Z,99312.57
2018-05-13T11:56:36.365Z,99319.09
2018-05-13T11:59:04.872Z,99320.58
2018-05-13T12:01:33.305Z,99307.66
2018-05-13T12:04:01.796Z,99309.04
2018-05-13T12:06:30.269Z,99303.70
2018-05-13T12:08:58.773Z,99306.80
2018-05-13T12:11:27.282Z,99290.61
2018-05-13T12:13:55.776Z,99290.16
2018-05-13T12:16:24.236Z,99292.31
2018-05-13T12:18:52.736Z,99287.48
2018-05-13T12:21:21.195Z,99280.17
2018-05-13T12:23:49.692Z,99273.36
2018-05-13T12:26:18.172Z,99272.03
2018-05-13T12:28:47.041Z,99269.36
2018-05-13T12:31:15.545Z,99254.87
2018-05-13T12:33:44.004Z,99271.09
2018-05-13T12:36:12.500Z,99278.91
2018-05-13T12:38:40.948Z,99270.47
2018-05-13T12:41:09.441Z,99260.76
2018-05-13T12:43:37.885Z,99256.85
2018-05-13T12:46:06.389Z,99259.97
2018-05-13T12:48:34.861Z,99249.78
2018-05-13T12:51:03.328Z,99246.02
2018-05-13T12:53:31.812Z,99245.52
2018-05-13T12:56:00.300Z,99240.38
2018-05-13T12:58:28.791Z,99239.11
2018-05-13T13:00:57.264Z,99238.68
2018-05-13T13:03:25.764Z,99219.58
2018-05-13T13:05:54.239Z,99228.25
2018-05-13T13:08:22.728Z,99242.98
2018-05-13T13:10:51.235Z,99245.87
2018-05-13T13:13:19.689Z,99234.78
2018-05-13T13:15:48.165Z,99241.10
2018-05-13T13:18:16.660Z,99234.48
2018-05-13T13:20:45.145Z,99237.42
2018-05-13T13:23:13.623Z,99237.53
2018-05-13T13:25:42.073Z,99230.44
2018-05-13T13:28:10.592Z,99229.55
2018-05-13T13:30:39.077Z,99232.82
2018-05-13T13:33:07.582Z,99229.45
2018-05-13T13:35:36.116Z,99231.41
2018-05-13T13:38:04.581Z,99233.83
2018-05-13T13:40:33.078Z,99225.69
2018-05-13T13:43:01.548Z,99232.83
2018-05-13T13:45:30.060Z,99224.09
2018-05-13T13:47:58.501Z,99226.95
2018-05-13T13:50:27.042Z,99229.42
2018-05-13T13:52:55.519Z,99219.05
2018-05-13T13:55:24.016Z,99217.32
2018-05-13T13:57:52.557Z,99218.48
2018-05-13T14:00:21.049Z,99219.58
2018-05-13T14:02:49.544Z,99215.57
2018-05-13T14:05:17.993Z,99209.06
2018-05-13T14:07:46.497Z,99208.87
2018-05-13T14:10:14.997Z,99221.48
2018-05-13T14:12:43.516Z,99224.71
2018-05-13T14:15:11.994Z,99223.06
2018-05-13T14:17:40.481Z,99221.15
2018-05-13T14:20:09.051Z,99221.03
2018-05-13T14:22:37.493Z,99223.61
2018-05-13T14:25:05.973Z,99211.33
2018-05-13T14:27:34.472Z,99214.88
2018-05-13T14:30:03.024Z,99215.22
2018-05-13T14:32:31.534Z,99217.80
2018-05-13T14:34:59.997Z,99223.24
2018-05-13T14:37:28.500Z,99223.38
2018-05-13T14:39:56.970Z,99225.05
2018-05-13T14:42:25.464Z,99227.73
2018-05-13T14:44:53.908Z,99218.42
2018-05-13T14:47:22.407Z,99216.92
2018-05-13T14:49:50.933Z,99217.45
2018-05-13T14:52:19.376Z,99213.81
2018-05-13T14:54:47.911Z,99212.77
2018-05-13T14:57:16.378Z,99218.38
2018-05-13T14:59:44.891Z,99216.23
2018-05-13T15:02:13.353Z,99209.08
2018-05-13T15:04:41.852Z,99204.30
2018-05-13T15:07:10.336Z,99200.27
2018-05-13T15:09:38.821Z,99187.73
2018-05-13T15:12:07.289Z,99199.88
2018-05-13T15:14:35.752Z,99209.18
2018-05-13T15:17:04.252Z,99207.79
2018-05-13T15:19:32.714Z,99208.52
2018-05-13T15:22:01.325Z,99208.55
2018-05-13T15:24:29.800Z,99202.56
2018-05-13T15:26:58.253Z,99201.22
2018-05-13T15:29:26.733Z,99200.30
2018-05-13T15:31:55.232Z,99205.33
2018-05-13T15:34:23.725Z,99210.63
2018-05-13T15:36:52.192Z,99188.98
2018-05-13T15:39:20.699Z,99202.32
2018-05-13T15:41:49.145Z,99203.86
2018-05-13T15:44:17.622Z,99202.65
2018-05-13T15:46:46.104Z,99200.55
2018-05-13T15:49:14.604Z,99211.62
2018-05-13T15:51:43.081Z,99208.72
2018-05-13T15:54:11.553Z,99208.72
2018-05-13T15:56:40.053Z,99203.34
2018-05-13T15:59:08.529Z,99199.14
2018-05-13T16:01:37.019Z,99213.42
2018-05-13T16:04:05.529Z,99206.28
2018-05-13T16:06:34.130Z,99205.45
2018-05-13T16:09:02.553Z,99207.05
2018-05-13T16:11:30.973Z,99210.64
2018-05-13T16:13:59.453Z,99214.57
2018-05-13T16:16:27.900Z,99217.90
2018-05-13T16:18:56.488Z,99220.47
2018-05-13T16:21:24.884Z,99217.02
2018-05-13T16:23:53.393Z,99228.00
2018-05-13T16:26:21.921Z,99217.42
2018-05-13T16:28:50.417Z,99228.23
2018-05-13T16:31:18.875Z,99228.38
2018-05-13T16:33:48.037Z,99229.78
2018-05-13T16:36:16.547Z,99229.70
2018-05-13T16:38:45.014Z,99233.97
2018-05-13T16:41:13.506Z,99226.00
2018-05-13T16:43:42.004Z,99230.50
2018-05-13T16:46:10.484Z,99234.58
2018-05-13T16:48:38.926Z,99228.58
2018-05-13T16:51:07.429Z,99233.55
2018-05-13T16:53:35.913Z,99231.60
2018-05-13T16:56:04.392Z,99229.91
2018-05-13T16:58:32.872Z,99224.05
2018-05-13T17:01:01.315Z,99227.55
2018-05-13T17:03:29.825Z,99225.48
2018-05-13T17:05:58.416Z,99224.10
2018-05-13T17:08:26.924Z,99226.48
2018-05-13T17:10:55.364Z,99227.97
2018-05-13T17:13:23.826Z,99233.52
2018-05-13T17:15:52.300Z,99216.61
2018-05-13T17:18:20.766Z,99226.84
2018-05-13T17:20:49.226Z,99232.61
2018-05-13T17:23:17.670Z,99231.79
2018-05-13T17:25:46.188Z,99231.70
2018-05-13T17:28:14.605Z,99223.02
2018-05-13T17:30:43.061Z,99216.27
2018-05-13T17:33:11.524Z,99223.73
2018-05-13T17:35:40.015Z,99221.30
2018-05-13T17:38:08.521Z,99218.49
2018-05-13T17:40:37.029Z,99221.59
2018-05-13T17:43:05.473Z,99221.41
2018-05-13T17:45:33.928Z,99219.61
2018-05-13T17:48:02.416Z,99220.55
2018-05-13T17:50:30.896Z,99225.14
2018-05-13T17:52:59.375Z,99226.99
2018-05-13T17:55:27.865Z,99223.33
2018-05-13T17:57:56.372Z,99225.00
2018-05-13T18:00:24.824Z,99222.53
2018-05-13T18:02:53.354Z,99221.72
2018-05-13T18:05:21.805Z,99221.17
2018-05-13T18:07:50.252Z,99226.30
2018-05-13T18:10:18.760Z,99229.78
2018-05-13T18:12:47.245Z,99226.16
2018-05-13T18:15:15.745Z,99228.56
2018-05-13T18:17:44.243Z,99227.38
2018-05-13T18:20:12.716Z,99225.48
2018-05-13T18:22:41.196Z,99230.05
2018-05-13T18:25:09.676Z,99232.14
2018-05-13T18:27:38.103Z,99237.10
2018-05-13T18:30:06.717Z,99245.16
2018-05-13T18:32:35.183Z,99247.45
2018-05-13T18:35:03.729Z,99246.91
2018-05-13T18:37:32.192Z,99252.41
2018-05-13T18:40:00.637Z,99255.71
2018-05-13T18:42:29.121Z,99269.70
2018-05-13T18:44:57.569Z,99268.33
2018-05-13T18:47:26.056Z,99260.84
2018-05-13T18:49:54.508Z,99266.91
2018-05-13T18:52:22.988Z,99270.27
2018-05-13T18:54:51.468Z,99263.86
2018-05-13T18:57:19.997Z,99272.98
2018-05-13T18:59:48.473Z,99270.91
2018-05-13T19:02:16.954Z,99266.55
2018-05-13T19:04:45.392Z,99273.22
2018-05-13T19:07:13.874Z,99273.19
2018-05-13T19:09:42.961Z,99283.95
2018-05-13T19:12:11.420Z,99261.67
2018-05-13T19:14:39.876Z,99278.41
2018-05-13T19:17:08.344Z,99280.72
2018-05-13T19:19:36.815Z,99276.12
2018-05-13T19:22:05.301Z,99278.63
2018-05-13T19:24:33.789Z,99281.30
2018-05-13T19:27:02.228Z,99283.39
2018-05-13T19:29:30.705Z,99298.19
2018-05-13T19:31:59.162Z,99295.45
2018-05-13T19:34:27.644Z,99280.28
2018-05-13T19:36:56.136Z,99285.59
2018-05-13T19:39:24.656Z,99286.03
2018-05-13T19:41:53.096Z,99288.03
2018-05-13T19:44:21.535Z,99287.25
2018-05-13T19:46:50.005Z,99289.09
2018-05-13T19:49:18.449Z,99289.25
2018-05-13T19:51:46.928Z,99291.52
2018-05-13T19:54:15.426Z,99296.80
2018-05-13T19:56:43.882Z,99295.69
2018-05-13T19:59:12.330Z,99298.44
2018-05-13T20:01:40.821Z,99280.53
2018-05-13T20:04:09.260Z,99303.52
2018-05-13T20:06:37.737Z,99303.30
2018-05-13T20:09:06.225Z,99302.61
2018-05-13T20:11:34.712Z,99297.57
2018-05-13T20:14:03.179Z,99292.08
2018-05-13T20:16:31.664Z,99292.53
2018-05-13T20:19:00.144Z,99291.40
2018-05-13T20:21:28.653Z,99290.94
2018-05-13T20:23:57.089Z,99287.00
2018-05-13T20:26:25.577Z,99273.27
2018-05-13T20:28:54.033Z,99288.81
2018-05-13T20:31:22.526Z,99271.56
2018-05-13T20:33:51.014Z,99288.77
2018-05-13T20:36:19.452Z,99282.19
2018-05-13T20:38:48.009Z,99282.75
2018-05-13T20:41:16.454Z,99288.25
2018-05-13T20:43:44.900Z,99275.67
2018-05-13T20:46:13.371Z,99283.92
2018-05-13T20:48:41.813Z,99286.58
2018-05-13T20:51:10.331Z,99292.66
2018-05-13T20:53:38.821Z,99285.27
2018-05-13T20:56:07.288Z,99289.52
2018-05-13T20:58:35.768Z,99270.48
2018-05-13T21:01:04.225Z,99285.45
2018-05-13T21:03:32.700Z,99288.42
2018-05-13T21:06:01.153Z,99283.68
2018-05-13T21:08:29.628Z,99282.06
2018-05-13T21:10:58.069Z,99276.36
2018-05-13T21:13:26.543Z,99278.45
2018-05-13T21:15:55.029Z,99281.04
2018-05-13T21:18:23.477Z,99284.23
2018-05-13T21:20:51.942Z,99285.21
2018-05-13T21:23:20.423Z,99283.56
2018-05-13T21:25:48.874Z,99279.16
2018-05-13T21:28:17.360Z,99276.34
2018-05-13T21:30:45.801Z,99279.15
2018-05-13T21:33:14.293Z,99274.65
2018-05-13T21:35:42.774Z,99254.58
2018-05-13T21:38:11.223Z,99275.50
2018-05-13T21:40:39.704Z,99271.66
2018-05-13T21:43:08.180Z,99275.27
2018-05-13T21:45:36.661Z,99271.02
2018-05-13T21:48:05.152Z,99254.72
2018-05-13T21:50:33.640Z,99270.89
2018-05-13T21:53:02.077Z,99268.28
2018-05-13T21:55:30.560Z,99277.28
2018-05-13T21:57:59.000Z,99270.22
2018-05-13T22:00:27.493Z,99272.95
2018-05-13T22:02:55.969Z,99274.94
2018-05-13T22:05:24.409Z,99268.56
2018-05-13T22:07:52.880Z,99275.98
2018-05-13T22:10:21.325Z,99277.51
2018-05-13T22:12:49.796Z,99275.35
2018-05-13T22:15:18.282Z,99266.52
2018-05-13T22:17:46.722Z,99288.19
2018-05-13T22:20:15.208Z,99282.45
2018-05-13T22:22:43.652Z,99272.44
2018-05-13T22:25:12.133Z,99278.78
2018-05-13T22:27:40.573Z,99277.63
2018-05-13T22:30:09.061Z,99280.58
2018-05-13T22:32:37.549Z,99282.59
2018-05-13T22:35:06.040Z,99284.83
2018-05-13T22:37:34.486Z,99287.13
2018-05-13T22:40:02.992Z,99294.70
2018-05-13T22:42:31.501Z,99288.62
2018-05-13T22:45:00.009Z,99287.56
2018-05-13T22:47:28.549Z,99289.81
2018-05-13T22:49:56.989Z,99288.86
2018-05-13T22:52:25.510Z,99289.34
2018-05-13T22:54:54.000Z,99289.93
2018-05-13T22:57:22.449Z,99290.59
2018-05-13T22:59:50.935Z,99294.92
2018-05-13T23:02:19.377Z,99302.69
2018-05-13T23:04:47.900Z,99291.45
2018-05-13T23:07:16.365Z,99294.57
2018-05-13T23:09:44.828Z,99287.50
2018-05-13T23:12:13.320Z,99288.34
2018-05-13T23:14:41.811Z,99284.23
2018-05-13T23:17:10.312Z,99282.19
2018-05-13T23:19:38.780Z,99283.55
2018-05-13T23:22:07.297Z,99276.50
2018-05-13T23:24:35.780Z,99278.89
2018-05-13T23:27:04.243Z,99287.53
2018-05-13T23:29:32.744Z,99285.92
2018-05-13T23:32:01.232Z,99283.87
2018-05-13T23:34:29.759Z,99290.75
2018-05-13T23:36:58.225Z,99287.64
2018-05-13T23:39:26.744Z,99291.80
2018-05-13T23:41:55.207Z,99280.45
2018-05-13T23:44:23.681Z,99287.64
2018-05-13T23:46:52.165Z,99292.55
2018-05-13T23:49:20.685Z,99293.23
2018-05-13T23:51:49.136Z,99302.69
2018-05-13T23:54:17.632Z,99298.34
2018-05-13T23:56:46.125Z,99305.33
2018-05-13T23:59:14.635Z,99309.59
